Time;durP1;ratioP1;P1;durP2;ratioP2;P2;SDS_P1;SDS_P2;PMS_P1;PMS_P2;Temp;Humidity;BMP_temperature;BMP_pressure;BME280_temperature;BME280_humidity;BME280_pressure;Samples;Min_cycle;Max_cycle;Signal;HPM_P1;HPM_P2
2021/09/05 00:01:51;;;;;;;16.77;10.68;;;;;;;11.91;100.00;102097.09;4973770;28;20041;-81
2021/09/05 00:04:16;;;;;;;19.58;10.20;;;;;;;11.97;100.00;102107.09;4972639;28;20072;-79
2021/09/05 00:06:42;;;;;;;16.92;10.27;;;;;;;11.96;100.00;102106.28;5009432;28;20042;-79
2021/09/05 00:09:07;;;;;;;19.20;10.45;;;;;;;11.93;100.00;102101.25;4977040;28;20038;-80
2021/09/05 00:11:33;;;;;;;15.95;9.63;;;;;;;11.88;100.00;102093.72;5006991;28;20033;-80
2021/09/05 00:13:59;;;;;;;20.20;9.77;;;;;;;11.86;100.00;102095.59;4990248;28;20041;-80
2021/09/05 00:16:24;;;;;;;18.52;11.05;;;;;;;11.89;100.00;102094.53;5005790;28;20575;-79
2021/09/05 00:18:50;;;;;;;19.95;10.65;;;;;;;11.91;100.00;102103.19;5008665;28;20052;-80
2021/09/05 00:21:15;;;;;;;21.15;10.25;;;;;;;11.87;100.00;102107.81;4975106;28;20030;-81
2021/09/05 00:23:41;;;;;;;18.73;10.65;;;;;;;11.84;100.00;102108.03;5005704;28;20507;-78
2021/09/05 00:26:08;;;;;;;20.23;10.93;;;;;;;11.81;100.00;102102.19;5006456;28;20045;-79
2021/09/05 00:28:34;;;;;;;18.98;10.60;;;;;;;11.82;100.00;102109.13;5008108;28;20072;-77
2021/09/05 00:31:03;;;;;;;19.90;10.73;;;;;;;11.79;100.00;102107.59;4992887;28;20041;-80
2021/09/05 00:33:29;;;;;;;19.27;10.68;;;;;;;11.79;100.00;102112.00;5007395;28;20038;-79
2021/09/05 00:35:54;;;;;;;15.20;10.10;;;;;;;11.72;100.00;102110.81;5006207;28;20040;-81
2021/09/05 00:38:23;;;;;;;17.67;10.10;;;;;;;11.74;100.00;102117.63;4975317;28;20406;-80
2021/09/05 00:40:48;;;;;;;23.10;10.48;;;;;;;11.64;100.00;102109.63;4992937;28;20037;-82
2021/09/05 00:43:14;;;;;;;17.88;9.95;;;;;;;11.64;100.00;102114.88;5009681;28;20064;-79
2021/09/05 00:45:39;;;;;;;17.40;9.70;;;;;;;11.60;100.00;102113.44;4977456;28;20795;-81
2021/09/05 00:48:05;;;;;;;21.40;10.35;;;;;;;11.54;100.00;102119.16;4989442;28;20042;-82
2021/09/05 00:50:31;;;;;;;19.20;10.32;;;;;;;11.52;100.00;102115.81;5007893;28;20401;-80
2021/09/05 00:52:57;;;;;;;20.30;10.90;;;;;;;11.50;100.00;102118.56;4976092;28;20072;-79
2021/09/05 00:55:23;;;;;;;16.98;10.00;;;;;;;11.43;100.00;102119.16;4975255;28;20065;-79
2021/09/05 00:57:51;;;;;;;17.63;9.98;;;;;;;11.43;100.00;102117.41;4992707;28;20149;-78
2021/09/05 01:00:20;;;;;;;17.88;10.07;;;;;;;11.37;100.00;102120.47;5009107;28;20103;-80
2021/09/05 01:02:47;;;;;;;18.13;9.68;;;;;;;11.35;100.00;102122.38;4990606;28;20045;-80
2021/09/05 01:05:16;;;;;;;15.90;9.00;;;;;;;11.34;100.00;102141.75;4989878;28;20043;-79
2021/09/05 01:07:42;;;;;;;20.55;10.38;;;;;;;11.42;100.00;102134.09;4992911;28;20120;-80
2021/09/05 01:10:12;;;;;;;15.63;10.07;;;;;;;11.33;100.00;102139.22;5008220;28;20048;-78
2021/09/05 01:12:40;;;;;;;18.20;9.75;;;;;;;11.17;100.00;102129.88;4991923;28;20033;-78
2021/09/05 01:15:06;;;;;;;14.07;9.07;;;;;;;11.14;100.00;102138.00;5007865;28;20099;-78
2021/09/05 01:17:36;;;;;;;19.17;9.65;;;;;;;11.13;100.00;102133.69;4974478;28;20037;-79
2021/09/05 01:20:21;;;;;;;15.82;9.50;;;;;;;11.13;100.00;102141.56;5008023;28;20136;-77
2021/09/05 01:23:05;;;;;;;15.23;9.10;;;;;;;10.99;100.00;102132.09;5008687;28;20034;-80
2021/09/05 01:26:11;;;;;;;14.00;8.07;;;;;;;10.92;100.00;102144.00;5005598;28;20056;-80
2021/09/05 01:28:58;;;;;;;22.88;9.00;;;;;;;10.80;100.00;102151.00;5009085;28;20046;-81
2021/09/05 01:32:03;;;;;;;12.25;8.07;;;;;;;10.63;100.00;102139.13;4971551;28;20050;-80
2021/09/05 01:34:49;;;;;;;16.58;8.40;;;;;;;10.52;100.00;102139.09;4970883;28;20059;-81
2021/09/05 01:37:33;;;;;;;14.82;8.07;;;;;;;10.47;100.00;102141.19;4996566;28;20050;-79
2021/09/05 01:40:33;;;;;;;16.73;8.18;;;;;;;10.37;100.00;102154.16;5004970;28;20462;-79
2021/09/05 01:43:17;;;;;;;18.83;8.65;;;;;;;10.23;100.00;102143.81;5009018;28;20057;-81
2021/09/05 01:46:06;;;;;;;15.02;8.10;;;;;;;10.21;100.00;102149.16;4995195;28;20057;-80
2021/09/05 01:49:06;;;;;;;14.35;8.30;;;;;;;10.17;100.00;102145.06;5009397;28;20758;-80
2021/09/05 01:51:50;;;;;;;18.73;8.73;;;;;;;10.09;100.00;102150.84;5008253;28;20038;-80
2021/09/05 01:54:47;;;;;;;19.45;8.00;;;;;;;10.02;100.00;102154.88;5006286;28;20053;-80
2021/09/05 01:57:38;;;;;;;20.23;8.13;;;;;;;9.97;100.00;102151.72;5005713;28;20117;-82
2021/09/05 02:00:22;;;;;;;13.38;7.43;;;;;;;9.97;100.00;102156.97;4998756;28;20037;-79
2021/09/05 02:02:56;;;;;;;12.18;7.40;;;;;;;9.99;100.00;102151.63;4994419;28;20095;-80
2021/09/05 02:05:43;;;;;;;19.15;8.38;;;;;;;10.01;100.00;102147.94;4991771;28;20034;-81
2021/09/05 02:08:27;;;;;;;12.52;7.50;;;;;;;10.01;100.00;102153.16;5012443;28;20041;-80
2021/09/05 02:11:14;;;;;;;14.82;7.25;;;;;;;9.99;100.00;102147.19;5021002;28;20046;-80
2021/09/05 02:14:15;;;;;;;12.90;8.02;;;;;;;10.03;100.00;102151.28;5048919;28;20079;-80
2021/09/05 02:16:52;;;;;;;12.68;7.22;;;;;;;10.01;100.00;102152.34;4985065;28;20044;-79
2021/09/05 02:19:37;;;;;;;14.07;7.30;;;;;;;9.98;100.00;102148.13;5009532;28;20099;-79
2021/09/05 02:22:25;;;;;;;12.98;7.50;;;;;;;9.95;100.00;102164.09;5010631;28;20122;-80
2021/09/05 02:25:09;;;;;;;15.23;7.22;;;;;;;9.88;100.00;102158.44;5005567;28;20037;-79
2021/09/05 02:27:53;;;;;;;16.00;7.15;;;;;;;9.88;100.00;102168.09;5009154;28;20045;-80
2021/09/05 02:30:41;;;;;;;12.52;6.72;;;;;;;9.78;100.00;102160.03;4990896;28;20039;-82
2021/09/05 02:33:35;;;;;;;10.70;6.45;;;;;;;9.78;100.00;102162.66;4975239;28;20058;-80
2021/09/05 02:36:15;;;;;;;12.75;6.75;;;;;;;9.73;100.00;102160.34;4987082;28;20084;-81
2021/09/05 02:39:07;;;;;;;17.92;7.20;;;;;;;9.78;100.00;102153.97;5012783;28;20049;-80
2021/09/05 02:42:04;;;;;;;11.30;7.10;;;;;;;9.71;100.00;102154.38;5008193;28;20041;-79
2021/09/05 02:44:48;;;;;;;11.48;7.20;;;;;;;9.74;100.00;102155.94;5011609;28;20060;-79
2021/09/05 02:47:47;;;;;;;10.93;7.00;;;;;;;9.77;100.00;102168.00;5008782;28;20042;-79
2021/09/05 02:50:28;;;;;;;10.32;6.40;;;;;;;9.74;100.00;102158.56;4973385;28;20050;-79
2021/09/05 02:53:14;;;;;;;14.13;7.47;;;;;;;9.65;100.00;102162.66;5007196;28;20034;-79
2021/09/05 02:56:09;;;;;;;10.95;5.70;;;;;;;9.63;100.00;102167.16;4995462;28;20030;-81
2021/09/05 02:59:07;;;;;;;11.70;6.70;;;;;;;9.60;100.00;102167.38;5027255;28;20563;-79
2021/09/05 03:01:55;;;;;;;12.73;6.95;;;;;;;9.43;100.00;102147.56;4979019;28;20073;-79
2021/09/05 03:04:39;;;;;;;14.32;6.25;;;;;;;9.49;100.00;102164.66;5004696;28;20037;-78
2021/09/05 03:07:32;;;;;;;9.82;6.28;;;;;;;9.39;100.00;102153.13;5010459;28;20104;-79
2021/09/05 03:10:20;;;;;;;16.08;6.85;;;;;;;9.43;100.00;102159.81;4992901;28;20125;-79
2021/09/05 03:13:06;;;;;;;14.60;6.70;;;;;;;9.46;100.00;102165.69;4997423;28;20076;-79
2021/09/05 03:16:00;;;;;;;12.30;6.55;;;;;;;9.46;100.00;102160.47;4986138;28;20038;-81
2021/09/05 03:18:44;;;;;;;19.30;6.85;;;;;;;9.44;100.00;102166.75;5007240;28;20038;-78
2021/09/05 03:21:26;;;;;;;15.77;6.70;;;;;;;9.43;100.00;102157.22;5012434;28;20377;-80
2021/09/05 03:24:10;;;;;;;13.93;6.57;;;;;;;9.38;100.00;102157.53;5012712;28;20037;-80
2021/09/05 03:27:00;;;;;;;14.52;6.97;;;;;;;9.40;100.00;102158.28;5006463;28;20553;-79
2021/09/05 03:29:54;;;;;;;13.15;6.45;;;;;;;9.36;100.00;102154.16;5012837;28;20038;-79
2021/09/05 03:32:35;;;;;;;14.77;6.60;;;;;;;9.40;100.00;102157.41;5012222;28;20080;-78
2021/09/05 03:35:39;;;;;;;11.15;6.10;;;;;;;9.30;100.00;102155.41;5027357;28;20038;-80
2021/09/05 03:38:25;;;;;;;10.95;5.88;;;;;;;9.28;100.00;102159.91;4996953;28;20240;-80
2021/09/05 03:41:22;;;;;;;10.43;6.28;;;;;;;9.26;100.00;102160.97;5014474;28;20077;-79
2021/09/05 03:44:07;;;;;;;13.20;6.43;;;;;;;9.28;100.00;102153.84;4998224;28;20042;-79
2021/09/05 03:46:51;;;;;;;10.05;6.03;;;;;;;9.29;100.00;102155.53;5011130;28;20042;-79
2021/09/05 03:49:45;;;;;;;12.05;6.93;;;;;;;9.28;100.00;102156.47;5011982;28;20508;-79
2021/09/05 03:52:11;;;;;;;12.32;6.13;;;;;;;9.19;100.00;102142.19;4989233;28;20041;-80
2021/09/05 03:54:38;;;;;;;12.68;5.95;;;;;;;9.24;100.00;102155.00;4994080;28;20519;-79
2021/09/05 03:57:04;;;;;;;12.40;6.50;;;;;;;9.20;100.00;102149.13;4993003;28;20038;-79
2021/09/05 03:59:32;;;;;;;12.02;7.18;;;;;;;9.25;100.00;102154.91;5007755;28;20072;-80
2021/09/05 04:01:59;;;;;;;14.07;6.70;;;;;;;9.22;100.00;102157.72;4976571;28;20096;-79
2021/09/05 04:04:27;;;;;;;8.43;5.60;;;;;;;9.20;100.00;102153.53;5010257;28;20034;-80
2021/09/05 04:07:01;;;;;;;13.25;6.10;;;;;;;9.14;100.00;102147.75;5012048;28;20040;-79
2021/09/05 04:12:13;;;;;;;10.95;5.85;;;;;;;9.13;100.00;102164.41;5010961;28;20041;-80
2021/09/05 04:14:38;;;;;;;11.70;5.68;;;;;;;9.16;100.00;102161.59;5012492;28;20034;-79
2021/09/05 04:17:05;;;;;;;11.55;5.90;;;;;;;9.06;100.00;102155.28;5011280;28;20037;-80
2021/09/05 04:19:30;;;;;;;9.30;6.22;;;;;;;9.04;100.00;102157.19;5012099;28;20036;-81
2021/09/05 04:21:56;;;;;;;9.75;6.07;;;;;;;9.06;100.00;102157.91;5011593;28;20030;-80
2021/09/05 04:24:21;;;;;;;16.95;6.30;;;;;;;9.12;100.00;102159.28;5011615;28;20042;-81
2021/09/05 04:26:48;;;;;;;12.93;6.00;;;;;;;9.10;100.00;102159.38;5019097;28;20488;-81
2021/09/05 04:29:13;;;;;;;10.85;6.00;;;;;;;9.07;100.00;102163.97;5007703;28;20104;-81
2021/09/05 04:31:38;;;;;;;10.52;5.68;;;;;;;9.02;100.00;102156.41;5010450;28;20541;-79
2021/09/05 04:34:04;;;;;;;10.70;6.05;;;;;;;9.03;100.00;102154.66;4993232;28;20044;-81
2021/09/05 04:36:29;;;;;;;12.80;6.07;;;;;;;9.01;100.00;102161.78;4979741;28;20037;-80
2021/09/05 04:38:55;;;;;;;11.45;5.80;;;;;;;8.98;100.00;102160.19;4994901;28;20097;-80
2021/09/05 04:41:21;;;;;;;11.18;5.68;;;;;;;9.03;100.00;102165.13;5013618;28;20042;-80
2021/09/05 04:43:46;;;;;;;13.70;5.97;;;;;;;8.96;100.00;102152.44;5007276;28;20072;-81
2021/09/05 04:46:11;;;;;;;10.68;5.72;;;;;;;8.93;100.00;102164.91;5010774;28;20484;-80
2021/09/05 04:48:37;;;;;;;9.07;5.20;;;;;;;8.97;100.00;102161.13;5003595;28;20101;-80
2021/09/05 04:51:02;;;;;;;12.27;5.88;;;;;;;9.02;100.00;102174.75;5011997;28;20033;-80
2021/09/05 04:53:28;;;;;;;10.60;5.70;;;;;;;8.99;100.00;102177.56;5011045;28;20088;-80
2021/09/05 04:55:53;;;;;;;9.43;5.43;;;;;;;8.99;100.00;102172.34;5027618;28;20021;-80
2021/09/05 04:58:19;;;;;;;9.57;5.35;;;;;;;8.98;100.00;102178.50;4994764;28;20096;-79
2021/09/05 05:00:44;;;;;;;9.63;5.03;;;;;;;8.96;100.00;102172.53;4993866;28;20030;-80
2021/09/05 05:03:10;;;;;;;9.07;4.82;;;;;;;9.01;100.00;102185.34;4994956;28;20533;-81
2021/09/05 05:05:38;;;;;;;9.70;5.47;;;;;;;9.05;100.00;102181.56;5010853;28;20120;-80
2021/09/05 05:08:04;;;;;;;10.30;5.00;;;;;;;9.10;100.00;102184.72;4978941;28;20033;-81
2021/09/05 05:10:29;;;;;;;9.57;5.03;;;;;;;9.07;100.00;102190.16;4981339;28;20121;-81
2021/09/05 05:12:55;;;;;;;7.90;4.97;;;;;;;9.08;100.00;102189.19;4978701;28;20037;-81
2021/09/05 05:15:21;;;;;;;11.65;5.60;;;;;;;9.14;100.00;102194.88;4994373;28;20129;-81
2021/09/05 05:17:46;;;;;;;10.18;4.88;;;;;;;9.18;100.00;102199.94;4993046;28;20136;-80
2021/09/05 05:20:12;;;;;;;11.75;6.00;;;;;;;9.32;100.00;102197.22;5012247;28;20041;-80
2021/09/05 05:22:39;;;;;;;12.30;5.82;;;;;;;9.32;100.00;102194.59;5010712;28;20507;-80
2021/09/05 05:25:05;;;;;;;8.68;5.18;;;;;;;9.40;100.00;102200.16;4977842;28;20088;-80
2021/09/05 05:27:31;;;;;;;12.23;5.45;;;;;;;9.43;100.00;102199.13;5011159;28;20511;-80
2021/09/05 05:29:56;;;;;;;9.82;5.50;;;;;;;9.50;100.00;102189.91;5011661;28;20080;-78
2021/09/05 05:32:22;;;;;;;10.35;5.25;;;;;;;9.60;100.00;102197.97;4978913;28;20045;-78
2021/09/05 05:34:47;;;;;;;12.40;4.95;;;;;;;9.64;100.00;102186.34;5010618;28;20064;-80
2021/09/05 05:37:14;;;;;;;14.80;5.55;;;;;;;9.84;100.00;102206.78;4994377;28;20105;-79
2021/09/05 05:39:40;;;;;;;14.02;5.55;;;;;;;9.89;100.00;102193.38;5010005;28;20041;-80
2021/09/05 05:42:05;;;;;;;12.68;5.70;;;;;;;10.09;100.00;102207.69;5010865;28;20393;-79
2021/09/05 05:44:31;;;;;;;9.93;5.53;;;;;;;10.10;100.00;102210.19;5010052;28;20491;-81
2021/09/05 05:46:56;;;;;;;10.65;5.38;;;;;;;10.15;100.00;102199.38;4996070;28;20554;-80
2021/09/05 05:49:22;;;;;;;8.95;5.10;;;;;;;10.20;100.00;102201.69;4982678;28;20037;-80
2021/09/05 05:51:47;;;;;;;11.82;5.28;;;;;;;10.31;100.00;102209.66;5010178;28;20504;-81
2021/09/05 05:54:15;;;;;;;11.77;5.00;;;;;;;10.44;100.00;102205.22;5009998;28;20042;-79
2021/09/05 05:56:45;;;;;;;13.52;4.70;;;;;;;10.60;100.00;102212.00;4994022;28;20040;-81
2021/09/05 05:59:12;;;;;;;11.75;4.57;;;;;;;10.63;100.00;102203.91;4981546;28;20045;-79
2021/09/05 06:01:41;;;;;;;10.07;4.60;;;;;;;10.85;100.00;102225.03;5010542;28;20041;-80
2021/09/05 06:04:08;;;;;;;12.02;4.80;;;;;;;10.89;100.00;102208.09;4976990;28;20798;-80
2021/09/05 06:06:33;;;;;;;10.23;4.80;;;;;;;10.99;100.00;102223.16;5010720;28;20401;-79
2021/09/05 06:09:00;;;;;;;11.02;5.10;;;;;;;11.14;100.00;102221.19;5007393;28;20619;-82
2021/09/05 06:11:27;;;;;;;9.32;4.18;;;;;;;11.34;100.00;102230.19;4994640;28;20034;-79
2021/09/05 06:13:53;;;;;;;11.40;4.78;;;;;;;11.45;100.00;102228.47;5011487;28;20112;-80
2021/09/05 06:16:19;;;;;;;9.10;4.70;;;;;;;11.64;100.00;102233.16;5008581;28;20030;-82
2021/09/05 06:18:46;;;;;;;11.77;4.15;;;;;;;11.59;100.00;102226.56;5010035;28;20042;-80
2021/09/05 06:21:11;;;;;;;7.68;4.32;;;;;;;11.68;100.00;102228.50;5010031;28;20057;-81
2021/09/05 06:23:37;;;;;;;5.90;3.92;;;;;;;11.66;100.00;102233.03;4993241;28;20046;-79
2021/09/05 06:26:02;;;;;;;8.55;3.78;;;;;;;11.65;100.00;102232.19;5011367;28;20140;-79
2021/09/05 06:28:28;;;;;;;7.10;3.63;;;;;;;11.83;100.00;102232.56;5009729;28;20045;-81
2021/09/05 06:30:53;;;;;;;7.35;3.88;;;;;;;11.93;100.00;102242.41;5010280;28;20034;-80
2021/09/05 06:33:19;;;;;;;6.88;4.05;;;;;;;11.96;100.00;102236.91;4989569;28;20038;-81
2021/09/05 06:35:44;;;;;;;8.02;3.85;;;;;;;12.13;100.00;102246.97;4991381;28;20042;-83
2021/09/05 06:38:10;;;;;;;6.85;3.65;;;;;;;12.16;100.00;102244.06;5009444;28;20034;-81
2021/09/05 06:40:35;;;;;;;9.05;3.72;;;;;;;12.27;100.00;102248.50;4991780;28;20029;-80
2021/09/05 06:43:01;;;;;;;8.05;3.53;;;;;;;12.32;100.00;102242.88;5010343;28;20457;-79
2021/09/05 06:45:26;;;;;;;8.02;4.25;;;;;;;12.29;100.00;102248.38;4977317;28;20026;-81
2021/09/05 06:47:52;;;;;;;7.00;3.25;;;;;;;12.34;100.00;102254.97;5008656;28;20025;-80
2021/09/05 06:50:17;;;;;;;6.30;3.50;;;;;;;12.46;100.00;102248.72;5008580;28;20054;-79
2021/09/05 06:52:43;;;;;;;4.82;3.20;;;;;;;12.54;100.00;102245.47;4989796;28;20030;-78
2021/09/05 06:55:09;;;;;;;7.82;3.50;;;;;;;12.76;99.85;102249.84;5010207;28;20107;-78
2021/09/05 06:57:34;;;;;;;6.63;3.50;;;;;;;12.96;99.51;102248.25;5011514;28;20041;-80
2021/09/05 07:00:00;;;;;;;5.22;3.00;;;;;;;13.14;96.99;102248.50;4976155;28;20045;-81
2021/09/05 07:02:25;;;;;;;10.70;3.60;;;;;;;13.22;97.15;102243.47;5008792;28;20076;-80
2021/09/05 07:04:51;;;;;;;5.45;3.03;;;;;;;13.34;93.73;102251.34;4976232;28;20102;-81
2021/09/05 07:07:16;;;;;;;5.63;3.28;;;;;;;13.41;92.63;102247.22;4987491;28;20064;-79
2021/09/05 07:09:42;;;;;;;8.65;3.20;;;;;;;13.55;92.15;102248.72;4988783;28;20128;-78
2021/09/05 07:12:08;;;;;;;6.95;3.08;;;;;;;13.46;92.51;102250.31;5009385;28;20030;-78
2021/09/05 07:14:34;;;;;;;11.65;3.20;;;;;;;13.44;91.60;102239.06;5012534;28;20033;-80
2021/09/05 07:16:59;;;;;;;6.38;3.17;;;;;;;13.52;92.95;102246.31;5007845;28;20033;-80
2021/09/05 07:19:25;;;;;;;7.78;3.08;;;;;;;13.35;93.04;102247.72;4994559;28;20057;-81
2021/09/05 07:21:50;;;;;;;6.88;3.55;;;;;;;13.39;94.70;102239.44;4994968;28;20092;-81
2021/09/05 07:24:16;;;;;;;6.35;2.92;;;;;;;13.32;92.22;102245.38;5012578;28;20041;-81
2021/09/05 07:26:41;;;;;;;9.00;3.35;;;;;;;13.59;91.41;102253.56;4994861;28;20419;-80
2021/09/05 07:29:07;;;;;;;4.63;2.85;;;;;;;13.55;92.31;102251.34;5009569;28;20034;-80
2021/09/05 07:31:32;;;;;;;8.25;3.22;;;;;;;13.73;90.82;102259.47;4984563;28;20160;-78
2021/09/05 07:33:58;;;;;;;4.22;2.75;;;;;;;13.92;89.55;102261.38;5013186;28;20030;-79
2021/09/05 07:36:24;;;;;;;4.70;3.10;;;;;;;13.92;90.31;102259.59;5011979;28;20041;-79
2021/09/05 07:38:49;;;;;;;9.25;2.88;;;;;;;14.08;88.67;102263.56;5009279;28;20041;-79
2021/09/05 07:41:16;;;;;;;9.00;3.20;;;;;;;14.10;89.34;102262.44;4996272;28;20127;-79
2021/09/05 07:43:42;;;;;;;8.10;3.65;;;;;;;14.16;90.71;102259.25;5012703;28;20069;-79
2021/09/05 07:46:08;;;;;;;9.27;3.40;;;;;;;14.31;89.88;102259.75;4979273;28;20033;-80
2021/09/05 07:48:33;;;;;;;6.00;3.28;;;;;;;14.25;88.42;102264.72;5012230;28;20598;-79
2021/09/05 07:50:59;;;;;;;7.82;3.38;;;;;;;14.23;88.82;102264.03;5002104;28;20034;-81
2021/09/05 07:53:24;;;;;;;5.80;3.13;;;;;;;14.39;88.84;102266.97;4996884;28;20060;-81
2021/09/05 07:55:49;;;;;;;8.25;3.50;;;;;;;14.50;87.16;102263.41;5008691;28;20029;-80
2021/09/05 07:58:15;;;;;;;7.65;3.53;;;;;;;14.65;86.18;102267.34;4982581;28;20461;-82
2021/09/05 08:00:41;;;;;;;4.72;2.63;;;;;;;14.62;87.47;102270.28;4993126;28;20065;-79
2021/09/05 08:03:06;;;;;;;5.22;3.03;;;;;;;14.59;85.59;102270.56;4978798;28;20042;-80
2021/09/05 08:05:32;;;;;;;9.70;3.70;;;;;;;14.84;84.33;102273.66;5006258;28;20037;-81
2021/09/05 08:07:57;;;;;;;7.78;2.90;;;;;;;15.03;84.51;102272.84;5012891;28;20038;-81
2021/09/05 08:10:23;;;;;;;5.75;2.90;;;;;;;15.10;82.35;102282.72;5011536;28;20085;-80
2021/09/05 08:12:48;;;;;;;6.45;3.17;;;;;;;15.11;81.30;102279.09;4995953;28;20821;-80
2021/09/05 08:15:14;;;;;;;8.52;3.38;;;;;;;15.10;84.81;102290.63;5013762;28;20129;-79
2021/09/05 08:17:40;;;;;;;6.70;2.80;;;;;;;15.10;83.45;102268.66;5011614;28;20036;-79
2021/09/05 08:20:07;;;;;;;7.35;3.17;;;;;;;15.25;82.19;102274.38;5010208;28;20069;-81
2021/09/05 08:22:32;;;;;;;7.95;2.88;;;;;;;15.24;81.38;102277.97;5013443;28;20037;-80
2021/09/05 08:24:58;;;;;;;4.30;2.83;;;;;;;15.22;82.92;102285.22;5013401;28;20088;-81
2021/09/05 08:27:23;;;;;;;6.75;3.30;;;;;;;15.42;80.67;102286.03;5014843;28;20041;-79
2021/09/05 08:29:49;;;;;;;6.03;3.25;;;;;;;15.62;80.79;102289.50;5013576;28;20112;-77
2021/09/05 08:32:14;;;;;;;9.20;3.10;;;;;;;15.64;81.05;102280.44;4994368;28;20044;-77
2021/09/05 08:34:40;;;;;;;6.05;3.22;;;;;;;15.70;80.04;102285.16;4997295;28;20041;-77
2021/09/05 08:37:06;;;;;;;5.78;3.05;;;;;;;15.71;81.25;102292.13;5002026;28;20547;-77
2021/09/05 08:39:31;;;;;;;10.52;3.03;;;;;;;15.68;81.02;102288.94;5003694;28;20038;-80
2021/09/05 08:41:57;;;;;;;6.75;3.20;;;;;;;15.68;80.70;102287.13;5009902;28;20037;-83
2021/09/05 08:44:24;;;;;;;4.30;2.80;;;;;;;15.90;78.76;102293.94;5009664;28;20129;-78
2021/09/05 08:46:55;;;;;;;7.15;3.30;;;;;;;15.85;79.33;102288.22;5008466;28;20041;-79
2021/09/05 08:49:31;;;;;;;7.60;3.03;;;;;;;16.03;79.42;102298.03;5009725;28;20040;-79
2021/09/05 08:51:57;;;;;;;5.13;2.97;;;;;;;16.05;80.80;102296.94;5008849;28;20034;-78
2021/09/05 08:54:23;;;;;;;6.05;3.17;;;;;;;16.13;80.24;102301.50;5008954;28;20034;-80
2021/09/05 08:56:51;;;;;;;5.78;2.90;;;;;;;16.08;77.49;102312.50;5011255;28;20045;-79
2021/09/05 08:59:16;;;;;;;5.88;2.83;;;;;;;16.07;78.63;102302.91;5011299;28;20053;-81
2021/09/05 09:01:56;;;;;;;5.00;3.00;;;;;;;16.24;78.82;102308.44;5008966;28;20061;-80
2021/09/05 09:04:22;;;;;;;8.05;3.30;;;;;;;16.27;79.20;102316.91;5007480;28;20038;-77
2021/09/05 09:06:48;;;;;;;4.90;2.80;;;;;;;16.34;77.95;102310.03;4993825;28;20412;-79
2021/09/05 09:09:14;;;;;;;5.75;3.17;;;;;;;16.42;75.50;102322.56;5004992;28;20108;-79
2021/09/05 09:11:57;;;;;;;4.43;3.00;;;;;;;16.54;80.14;102320.56;5010023;28;20053;-79
2021/09/05 09:14:39;;;;;;;4.85;3.05;;;;;;;16.64;77.04;102317.84;5007334;28;20120;-78
2021/09/05 09:17:05;;;;;;;6.03;3.10;;;;;;;16.54;77.40;102320.56;5009310;28;20480;-79
2021/09/05 09:19:31;;;;;;;8.95;3.42;;;;;;;16.46;77.13;102305.41;5003368;28;20507;-81
2021/09/05 09:21:56;;;;;;;7.75;3.47;;;;;;;16.61;76.17;102315.50;5012436;28;20088;-79
2021/09/05 09:24:23;;;;;;;6.72;3.08;;;;;;;16.74;76.07;102314.19;5009951;28;20040;-80
2021/09/05 09:27:02;;;;;;;7.47;3.25;;;;;;;16.72;76.95;102307.34;4992704;28;20042;-79
2021/09/05 09:29:27;;;;;;;4.55;3.45;;;;;;;16.84;75.43;102315.94;5009683;28;20030;-79
2021/09/05 09:31:58;;;;;;;7.60;3.30;;;;;;;16.84;75.50;102313.28;5016923;28;20550;-78
2021/09/05 09:34:25;;;;;;;5.55;3.17;;;;;;;16.88;76.77;102307.56;4994626;28;20034;-80
2021/09/05 09:37:00;;;;;;;5.93;3.35;;;;;;;16.67;78.50;102307.81;5010960;28;20034;-81
2021/09/05 09:39:28;;;;;;;5.93;3.40;;;;;;;16.72;77.89;102313.47;4990941;28;20492;-80
2021/09/05 09:41:55;;;;;;;6.00;3.22;;;;;;;16.93;75.17;102323.00;4974298;28;20042;-80
2021/09/05 09:44:27;;;;;;;6.90;3.03;;;;;;;17.02;75.78;102306.19;5002513;28;20030;-81
2021/09/05 09:46:52;;;;;;;10.35;3.88;;;;;;;17.20;75.17;102311.50;5008695;28;20030;-82
2021/09/05 09:49:18;;;;;;;7.68;3.28;;;;;;;17.31;75.63;102307.81;5009481;28;20041;-80
2021/09/05 09:51:44;;;;;;;9.68;3.45;;;;;;;17.44;73.43;102300.28;5011161;28;20034;-81
2021/09/05 09:54:10;;;;;;;5.75;3.00;;;;;;;17.57;74.68;102299.03;4993142;28;20042;-82
2021/09/05 09:56:35;;;;;;;7.85;3.78;;;;;;;17.67;76.13;102300.59;5009467;28;20036;-81
2021/09/05 09:59:04;;;;;;;7.53;3.75;;;;;;;17.76;72.08;102293.50;5009946;28;20415;-81
2021/09/05 10:01:32;;;;;;;7.72;3.58;;;;;;;17.61;73.44;102301.25;5009881;28;20054;-80
2021/09/05 10:04:01;;;;;;;6.25;3.90;;;;;;;17.53;74.85;102309.13;5011058;28;20124;-80
2021/09/05 10:06:29;;;;;;;5.30;3.05;;;;;;;17.48;74.21;102298.16;5003382;28;20062;-81
2021/09/05 10:09:05;;;;;;;5.25;3.33;;;;;;;17.84;75.80;102295.41;5008715;28;20168;-80
2021/09/05 10:11:32;;;;;;;4.68;3.15;;;;;;;18.09;73.42;102296.41;5008078;28;20054;-81
2021/09/05 10:13:59;;;;;;;5.43;3.30;;;;;;;18.23;70.48;102300.28;5008753;28;20487;-81
2021/09/05 10:16:25;;;;;;;5.32;3.30;;;;;;;18.42;70.12;102304.50;4993151;28;20042;-79
2021/09/05 10:18:53;;;;;;;5.72;3.50;;;;;;;18.26;70.52;102300.78;4974165;28;20034;-82
2021/09/05 10:21:21;;;;;;;7.70;3.83;;;;;;;18.46;72.19;102297.91;5009913;28;20403;-81
2021/09/05 10:23:52;;;;;;;7.97;3.60;;;;;;;18.70;70.56;102304.25;4981846;28;20037;-82
2021/09/05 10:26:18;;;;;;;6.50;3.65;;;;;;;18.86;67.30;102299.03;5002942;28;20140;-80
2021/09/05 10:28:48;;;;;;;5.47;3.58;;;;;;;19.01;68.04;102301.88;4990781;28;20029;-81
2021/09/05 10:31:28;;;;;;;9.48;4.28;;;;;;;19.19;71.10;102299.91;5013267;28;20060;-80
2021/09/05 10:33:55;;;;;;;6.40;3.80;;;;;;;19.11;66.01;102285.75;4987668;28;20121;-79
2021/09/05 10:36:23;;;;;;;8.20;4.25;;;;;;;18.96;69.86;102293.56;5010782;28;20033;-80
2021/09/05 10:38:49;;;;;;;7.72;4.03;;;;;;;18.92;68.47;102289.56;4988418;28;20045;-79
2021/09/05 10:41:27;;;;;;;9.50;4.05;;;;;;;19.03;67.26;102287.41;4996125;28;20037;-81
2021/09/05 10:44:05;;;;;;;6.78;3.95;;;;;;;18.79;68.24;102292.66;5011246;28;20033;-78
2021/09/05 10:46:34;;;;;;;7.85;4.30;;;;;;;19.03;68.53;102294.56;5010039;28;20041;-83
2021/09/05 10:49:03;;;;;;;6.63;4.30;;;;;;;19.04;66.43;102291.75;4995833;28;20031;-81
2021/09/05 10:51:36;;;;;;;7.18;4.13;;;;;;;18.52;67.39;102293.75;5013857;28;20036;-79
2021/09/05 10:54:11;;;;;;;9.98;4.50;;;;;;;18.09;69.09;102285.78;4998274;28;20118;-78
2021/09/05 10:56:44;;;;;;;7.10;4.10;;;;;;;18.45;70.91;102277.63;5027893;28;20033;-79
2021/09/05 10:59:26;;;;;;;6.47;4.05;;;;;;;18.76;70.20;102291.16;5012492;28;20042;-79
2021/09/05 11:01:52;;;;;;;7.63;4.05;;;;;;;18.81;69.34;102285.38;5015674;28;20041;-78
2021/09/05 11:04:19;;;;;;;6.28;4.25;;;;;;;19.25;69.29;102280.59;5011563;28;20124;-80
2021/09/05 11:06:52;;;;;;;6.18;3.47;;;;;;;19.55;68.49;102288.91;5010605;28;20488;-80
2021/09/05 11:09:17;;;;;;;8.15;3.88;;;;;;;19.52;68.45;102288.41;5008672;28;20049;-79
2021/09/05 11:11:56;;;;;;;8.10;3.30;;;;;;;19.64;68.96;102281.72;5013700;28;20034;-80
2021/09/05 11:14:37;;;;;;;7.60;4.20;;;;;;;19.14;66.83;102288.09;5013544;28;20057;-81
2021/09/05 11:17:07;;;;;;;6.65;4.22;;;;;;;19.18;69.40;102279.59;5013215;28;20552;-77
2021/09/05 11:19:54;;;;;;;7.20;4.65;;;;;;;19.52;67.47;102281.25;4980967;28;20119;-78
2021/09/05 11:22:23;;;;;;;7.22;3.75;;;;;;;19.68;67.82;102283.03;4997053;28;20038;-79
2021/09/05 11:25:06;;;;;;;5.90;3.75;;;;;;;19.62;67.05;102284.53;5010223;28;20033;-80
2021/09/05 11:27:33;;;;;;;6.53;3.72;;;;;;;19.79;67.45;102276.56;4996842;28;20034;-79
2021/09/05 11:30:11;;;;;;;8.07;3.72;;;;;;;19.88;65.07;102285.38;5015009;28;20030;-78
2021/09/05 11:32:39;;;;;;;8.50;3.90;;;;;;;19.97;65.94;102287.84;4996936;28;20553;-80
2021/09/05 11:35:08;;;;;;;8.50;4.00;;;;;;;20.00;61.70;102276.84;5013083;28;20042;-79
2021/09/05 11:37:37;;;;;;;11.82;3.72;;;;;;;20.10;64.40;102286.44;5009876;28;20054;-81
2021/09/05 11:40:10;;;;;;;8.50;4.00;;;;;;;20.10;63.95;102287.31;4979530;28;20034;-81
2021/09/05 11:42:42;;;;;;;7.88;3.50;;;;;;;20.23;62.78;102290.25;5010589;28;20504;-79